Time,TemperatureF,DewpointF,PressureIn,WindDirection,WindDirectionDegrees,WindSpeedMPH,WindSpeedGustMPH,Humidity,HourlyPrecipIn,Conditions,Clouds,dailyrainin,SoftwareType,DateUTC
2013-03-05 00:02:00,37.0,18.0,30.04,ESE,118,1.0,2.0,46,0.00,,,0.00,,2013-03-05 05:02:00,
2013-03-05 00:12:00,37.0,18.0,30.04,ESE,118,1.0,2.0,46,0.00,,,0.00,,2013-03-05 05:12:00,
2013-03-05 00:22:00,36.0,17.0,30.03,ESE,118,1.0,2.0,45,0.00,,,0.00,,2013-03-05 05:22:00,
2013-03-05 00:32:00,36.0,16.0,30.03,ESE,118,0.0,1.0,44,0.00,,,0.00,,2013-03-05 05:32:00,
2013-03-05 00:42:00,36.0,16.0,30.03,ESE,118,0.0,1.0,44,0.00,,,0.00,,2013-03-05 05:42:00,
2013-03-05 00:52:00,37.0,17.0,30.03,ESE,118,0.0,1.0,44,0.00,,,0.00,,2013-03-05 05:52:00,
2013-03-05 01:01:00,37.0,18.0,30.04,ESE,119,1.0,4.0,45,0.00,,,0.00,,2013-03-05 06:01:00,
2013-03-05 01:11:00,37.0,18.0,30.04,ESE,119,1.0,4.0,45,0.00,,,0.00,,2013-03-05 06:11:00,
2013-03-05 01:22:00,37.0,19.0,30.04,SE,133,1.0,4.0,48,0.00,,,0.00,,2013-03-05 06:22:00,
2013-03-05 01:32:00,37.0,19.0,30.05,SE,134,2.0,4.0,48,0.00,,,0.00,,2013-03-05 06:32:00,
2013-03-05 01:42:00,37.0,19.0,30.05,SE,134,2.0,4.0,48,0.00,,,0.00,,2013-03-05 06:42:00,
2013-03-05 01:52:00,37.0,19.0,30.06,SE,135,0.0,4.0,47,0.00,,,0.00,,2013-03-05 06:52:00,
2013-03-05 02:01:00,37.0,18.0,30.06,SE,136,1.0,4.0,45,0.00,,,0.00,,2013-03-05 07:01:00,
2013-03-05 02:11:00,37.0,18.0,30.06,SE,136,1.0,4.0,45,0.00,,,0.00,,2013-03-05 07:11:00,
2013-03-05 02:22:00,37.0,17.0,30.06,SE,136,0.0,2.0,43,0.00,,,0.00,,2013-03-05 07:22:00,
2013-03-05 02:31:00,37.0,18.0,30.05,East,90,3.0,4.0,46,0.00,,,0.00,,2013-03-05 07:31:00,
2013-03-05 02:42:00,37.0,18.0,30.05,East,90,3.0,4.0,46,0.00,,,0.00,,2013-03-05 07:42:00,
2013-03-05 02:52:00,38.0,21.0,30.04,East,90,1.0,4.0,50,0.00,,,0.00,,2013-03-05 07:52:00,
2013-03-05 03:02:00,38.0,21.0,30.04,East,92,2.0,4.0,49,0.00,,,0.00,,2013-03-05 08:02:00,
2013-03-05 03:11:00,38.0,21.0,30.04,East,92,2.0,4.0,49,0.00,,,0.00,,2013-03-05 08:11:00,
2013-03-05 03:21:00,38.0,22.0,30.05,SSW,209,2.0,5.0,51,0.00,,,0.00,,2013-03-05 08:21:00,
2013-03-05 03:31:00,38.0,21.0,30.05,SSW,213,0.0,4.0,50,0.00,,,0.00,,2013-03-05 08:31:00,
2013-03-05 03:41:00,38.0,21.0,30.05,SSW,213,0.0,4.0,50,0.00,,,0.00,,2013-03-05 08:41:00,
2013-03-05 03:52:00,38.0,21.0,30.04,SSW,211,0.0,3.0,50,0.00,,,0.00,,2013-03-05 08:52:00,
2013-03-05 04:01:00,38.0,22.0,30.04,ENE,76,1.0,4.0,51,0.00,,,0.00,,2013-03-05 09:01:00,
2013-03-05 04:11:00,38.0,22.0,30.04,ENE,76,1.0,4.0,51,0.00,,,0.00,,2013-03-05 09:11:00,
2013-03-05 04:21:00,38.0,22.0,30.04,NNE,26,1.0,3.0,52,0.00,,,0.00,,2013-03-05 09:21:00,
2013-03-05 04:32:00,38.0,22.0,30.04,NNE,23,0.0,2.0,53,0.00,,,0.00,,2013-03-05 09:32:00,
2013-03-05 04:43:00,38.0,22.0,30.04,NNE,23,0.0,2.0,53,0.00,,,0.00,,2013-03-05 09:43:00,
2013-03-05 04:52:00,38.0,22.0,30.04,NNE,19,1.0,3.0,52,0.00,,,0.00,,2013-03-05 09:52:00,
2013-03-05 05:01:00,38.0,22.0,30.03,NNE,19,1.0,2.0,53,0.00,,,0.00,,2013-03-05 10:01:00,
2013-03-05 05:11:00,38.0,22.0,30.03,NNE,19,1.0,2.0,53,0.00,,,0.00,,2013-03-05 10:11:00,
2013-03-05 05:22:00,38.0,23.0,30.03,NNE,17,0.0,2.0,55,0.00,,,0.00,,2013-03-05 10:22:00,
2013-03-05 05:32:00,38.0,23.0,30.04,West,271,1.0,4.0,54,0.00,,,0.00,,2013-03-05 10:32:00,
2013-03-05 05:42:00,38.0,23.0,30.04,West,271,1.0,4.0,54,0.00,,,0.00,,2013-03-05 10:42:00,
2013-03-05 05:52:00,38.0,22.0,30.03,WSW,253,0.0,3.0,53,0.00,,,0.00,,2013-03-05 10:52:00,
2013-03-05 06:01:00,38.0,22.0,30.03,WSW,253,0.0,3.0,52,0.00,,,0.00,,2013-03-05 11:01:00,
2013-03-05 06:11:00,38.0,22.0,30.03,WSW,253,0.0,3.0,52,0.00,,,0.00,,2013-03-05 11:11:00,
2013-03-05 06:22:00,38.0,22.0,30.03,WSW,253,1.0,2.0,51,0.00,,,0.00,,2013-03-05 11:22:00,
2013-03-05 06:32:00,38.0,22.0,30.03,WSW,255,0.0,2.0,52,0.00,,,0.00,,2013-03-05 11:32:00,
2013-03-05 06:42:00,38.0,22.0,30.03,WSW,255,0.0,2.0,52,0.00,,,0.00,,2013-03-05 11:42:00,
2013-03-05 06:52:00,38.0,22.0,30.03,West,261,0.0,3.0,53,0.00,,,0.00,,2013-03-05 11:52:00,
2013-03-05 07:02:00,38.0,24.0,30.03,West,263,0.0,3.0,57,0.00,,,0.00,,2013-03-05 12:02:00,
2013-03-05 07:12:00,38.0,24.0,30.03,West,263,0.0,3.0,57,0.00,,,0.00,,2013-03-05 12:12:00,
2013-03-05 07:22:00,38.0,24.0,30.03,South,181,1.0,3.0,56,0.00,,,0.00,,2013-03-05 12:22:00,
2013-03-05 07:32:00,38.0,23.0,30.02,South,181,0.0,2.0,55,0.00,,,0.00,,2013-03-05 12:32:00,
2013-03-05 07:42:00,38.0,23.0,30.02,South,181,0.0,2.0,55,0.00,,,0.00,,2013-03-05 12:42:00,
2013-03-05 07:53:00,38.0,24.0,30.06,South,182,0.0,1.0,57,0.00,,,0.00,,2013-03-05 12:53:00,
2013-03-05 08:02:00,39.0,25.0,30.06,SE,136,0.0,1.0,57,0.00,,,0.00,,2013-03-05 13:02:00,
2013-03-05 08:12:00,39.0,25.0,30.06,SE,136,0.0,1.0,57,0.00,,,0.00,,2013-03-05 13:12:00,
2013-03-05 08:22:00,39.0,26.0,30.06,SE,135,0.0,1.0,59,0.00,,,0.00,,2013-03-05 13:22:00,
2013-03-05 08:32:00,39.0,27.0,30.06,ENE,74,0.0,2.0,62,0.00,,,0.00,,2013-03-05 13:32:00,
2013-03-05 08:42:00,39.0,27.0,30.06,ENE,74,0.0,2.0,62,0.00,,,0.00,,2013-03-05 13:42:00,
2013-03-05 08:52:00,40.0,26.0,30.06,NE,39,0.0,2.0,58,0.00,,,0.00,,2013-03-05 13:52:00,
2013-03-05 09:02:00,40.0,26.0,30.06,NNE,15,0.0,2.0,56,0.00,,,0.00,,2013-03-05 14:02:00,
2013-03-05 09:11:00,40.0,26.0,30.06,NNE,15,0.0,2.0,56,0.00,,,0.00,,2013-03-05 14:11:00,
2013-03-05 09:22:00,41.0,26.0,30.04,NNE,22,0.0,3.0,55,0.00,,,0.00,,2013-03-05 14:22:00,
2013-03-05 09:32:00,42.0,27.0,30.04,NNE,13,1.0,2.0,54,0.00,,,0.00,,2013-03-05 14:32:00,
2013-03-05 09:42:00,42.0,27.0,30.04,NNE,13,1.0,2.0,54,0.00,,,0.00,,2013-03-05 14:42:00,
2013-03-05 09:52:00,42.0,26.0,30.03,North,355,0.0,3.0,52,0.00,,,0.00,,2013-03-05 14:52:00,
2013-03-05 10:02:00,43.0,25.0,30.03,NW,312,1.0,3.0,49,0.00,,,0.00,,2013-03-05 15:02:00,
2013-03-05 10:11:00,43.0,25.0,30.03,NW,312,1.0,3.0,49,0.00,,,0.00,,2013-03-05 15:11:00,
2013-03-05 10:21:00,44.0,26.0,30.02,West,281,0.0,3.0,48,0.00,,,0.00,,2013-03-05 15:21:00,
2013-03-05 10:32:00,44.0,26.0,30.02,NW,313,0.0,4.0,48,0.00,,,0.00,,2013-03-05 15:32:00,
2013-03-05 10:42:00,44.0,26.0,30.02,NW,313,0.0,4.0,48,0.00,,,0.00,,2013-03-05 15:42:00,
2013-03-05 10:52:00,43.0,25.0,30.01,NNW,342,2.0,4.0,49,0.00,,,0.00,,2013-03-05 15:52:00,
2013-03-05 11:01:00,43.0,26.0,30.01,North,355,0.0,3.0,50,0.00,,,0.00,,2013-03-05 16:01:00,
2013-03-05 11:11:00,43.0,26.0,30.01,North,355,0.0,3.0,50,0.00,,,0.00,,2013-03-05 16:11:00,
2013-03-05 11:22:00,44.0,27.0,30.00,NNW,346,0.0,3.0,50,0.00,,,0.00,,2013-03-05 16:22:00,
2013-03-05 11:32:00,44.0,26.0,30.00,North,350,2.0,5.0,49,0.00,,,0.00,,2013-03-05 16:32:00,
2013-03-05 11:42:00,44.0,26.0,30.00,North,350,2.0,5.0,49,0.00,,,0.00,,2013-03-05 16:42:00,
2013-03-05 11:52:00,44.0,27.0,30.00,North,350,0.0,2.0,51,0.00,,,0.00,,2013-03-05 16:52:00,
2013-03-05 12:01:00,45.0,28.0,29.99,North,355,1.0,4.0,51,0.00,,,0.00,,2013-03-05 17:01:00,
2013-03-05 12:11:00,45.0,28.0,29.99,North,355,1.0,4.0,51,0.00,,,0.00,,2013-03-05 17:11:00,
2013-03-05 12:21:00,45.0,29.0,29.98,North,355,2.0,5.0,53,0.00,,,0.00,,2013-03-05 17:21:00,
2013-03-05 12:32:00,45.0,29.0,29.97,North,355,1.0,4.0,54,0.00,,,0.00,,2013-03-05 17:32:00,
2013-03-05 12:42:00,45.0,29.0,29.97,North,355,1.0,4.0,54,0.00,,,0.00,,2013-03-05 17:42:00,
2013-03-05 12:53:00,45.0,28.0,29.96,North,360,4.0,5.0,52,0.00,,,0.00,,2013-03-05 17:53:00,
2013-03-05 13:02:00,46.0,28.0,29.95,East,92,5.0,11.0,49,0.00,,,0.00,,2013-03-05 18:02:00,
2013-03-05 13:11:00,46.0,28.0,29.95,East,92,5.0,11.0,49,0.00,,,0.00,,2013-03-05 18:11:00,
2013-03-05 13:22:00,46.0,27.0,29.94,ESE,123,6.0,11.0,47,0.00,,,0.00,,2013-03-05 18:22:00,
2013-03-05 13:32:00,47.0,27.0,29.93,ESE,108,4.0,11.0,45,0.00,,,0.00,,2013-03-05 18:32:00,
2013-03-05 13:42:00,47.0,27.0,29.93,ESE,108,4.0,11.0,45,0.00,,,0.00,,2013-03-05 18:42:00,
2013-03-05 13:53:00,47.0,27.0,29.92,SE,144,4.0,11.0,46,0.00,,,0.00,,2013-03-05 18:53:00,
2013-03-05 14:01:00,47.0,28.0,29.91,SE,140,6.0,10.0,47,0.00,,,0.00,,2013-03-05 19:01:00,
2013-03-05 14:11:00,47.0,28.0,29.91,SE,140,6.0,10.0,47,0.00,,,0.00,,2013-03-05 19:11:00,
2013-03-05 14:21:00,47.0,27.0,29.90,SSE,157,4.0,9.0,46,0.00,,,0.00,,2013-03-05 19:21:00,
2013-03-05 14:32:00,47.0,27.0,29.89,ESE,113,5.0,12.0,45,0.00,,,0.00,,2013-03-05 19:32:00,
2013-03-05 14:42:00,47.0,27.0,29.89,ESE,113,5.0,12.0,45,0.00,,,0.00,,2013-03-05 19:42:00,
2013-03-05 14:52:00,47.0,27.0,29.88,ESE,120,6.0,11.0,45,0.00,,,0.00,,2013-03-05 19:52:00,
2013-03-05 15:01:00,48.0,28.0,29.88,SE,144,5.0,12.0,45,0.00,,,0.00,,2013-03-05 20:01:00,
2013-03-05 15:11:00,48.0,28.0,29.88,SSE,165,5.0,13.0,45,0.00,,,0.00,,2013-03-05 20:11:00,
2013-03-05 15:22:00,48.0,28.0,29.88,SSE,165,5.0,13.0,45,0.00,,,0.00,,2013-03-05 20:22:00,
2013-03-05 15:32:00,48.0,27.0,29.88,SE,136,5.0,12.0,44,0.00,,,0.00,,2013-03-05 20:32:00,
2013-03-05 15:42:00,48.0,27.0,29.88,SE,136,5.0,12.0,44,0.00,,,0.00,,2013-03-05 20:42:00,
2013-03-05 15:52:00,48.0,27.0,29.88,ESE,121,5.0,15.0,44,0.00,,,0.00,,2013-03-05 20:52:00,
2013-03-05 16:02:00,48.0,27.0,29.87,SSE,167,6.0,13.0,43,0.00,,,0.00,,2013-03-05 21:02:00,
2013-03-05 16:11:00,48.0,27.0,29.87,SSE,167,6.0,13.0,43,0.00,,,0.00,,2013-03-05 21:11:00,
2013-03-05 16:22:00,48.0,28.0,29.86,ESE,115,3.0,8.0,45,0.00,,,0.00,,2013-03-05 21:22:00,
2013-03-05 16:32:00,47.0,29.0,29.86,SSE,153,5.0,9.0,49,0.00,,,0.00,,2013-03-05 21:32:00,
2013-03-05 16:42:00,47.0,29.0,29.86,SSE,153,5.0,9.0,49,0.00,,,0.00,,2013-03-05 21:42:00,
2013-03-05 16:52:00,46.0,30.0,29.86,ESE,123,4.0,9.0,53,0.00,,,0.00,,2013-03-05 21:52:00,
2013-03-05 17:01:00,45.0,32.0,29.86,SE,141,3.0,9.0,60,0.01,,,0.01,,2013-03-05 22:01:00,
2013-03-05 17:11:00,45.0,32.0,29.86,SE,141,3.0,9.0,60,0.01,,,0.01,,2013-03-05 22:11:00,
2013-03-05 17:22:00,43.0,32.0,29.85,SE,143,3.0,5.0,66,0.02,,,0.02,,2013-03-05 22:22:00,
2013-03-05 17:32:00,42.0,33.0,29.85,SE,133,2.0,6.0,70,0.04,,,0.04,,2013-03-05 22:32:00,
2013-03-05 17:42:00,42.0,33.0,29.85,SE,133,2.0,6.0,70,0.04,,,0.04,,2013-03-05 22:42:00,
2013-03-05 17:52:00,42.0,35.0,29.86,ESE,121,1.0,6.0,75,0.06,,,0.06,,2013-03-05 22:52:00,
2013-03-05 18:01:00,41.0,35.0,29.85,ESE,103,4.0,6.0,79,0.07,,,0.08,,2013-03-05 23:01:00,
2013-03-05 18:11:00,41.0,35.0,29.85,ESE,103,4.0,6.0,79,0.07,,,0.08,,2013-03-05 23:11:00,
2013-03-05 18:21:00,40.0,35.0,29.83,East,85,4.0,12.0,82,0.08,,,0.10,,2013-03-05 23:21:00,
2013-03-05 18:32:00,40.0,36.0,29.83,ESE,112,5.0,11.0,84,0.07,,,0.11,,2013-03-05 23:32:00,
2013-03-05 18:42:00,40.0,36.0,29.83,ESE,112,5.0,11.0,84,0.07,,,0.11,,2013-03-05 23:42:00,
2013-03-05 18:53:00,39.0,35.0,29.82,East,99,4.0,9.0,85,0.05,,,0.11,,2013-03-05 23:53:00,
2013-03-05 19:01:00,39.0,35.0,29.81,SE,124,3.0,7.0,86,0.03,,,0.11,,2013-03-06 00:01:00,
2013-03-05 19:11:00,39.0,35.0,29.81,SE,124,3.0,7.0,86,0.03,,,0.11,,2013-03-06 00:11:00,
2013-03-05 19:21:00,39.0,35.0,29.80,East,97,5.0,9.0,86,0.02,,,0.12,,2013-03-06 00:21:00,
2013-03-05 19:32:00,39.0,35.0,29.79,ESE,123,3.0,7.0,87,0.01,,,0.12,,2013-03-06 00:32:00,
2013-03-05 19:42:00,39.0,35.0,29.79,ESE,123,3.0,7.0,87,0.01,,,0.12,,2013-03-06 00:42:00,
2013-03-05 19:52:00,38.0,35.0,29.78,ENE,59,5.0,15.0,88,0.03,,,0.14,,2013-03-06 00:52:00,
2013-03-05 20:02:00,38.0,35.0,29.77,East,90,4.0,8.0,89,0.05,,,0.16,,2013-03-06 01:02:00,
2013-03-05 20:11:00,38.0,35.0,29.77,East,90,4.0,8.0,89,0.05,,,0.16,,2013-03-06 01:11:00,
2013-03-05 20:21:00,38.0,35.0,29.78,ENE,65,3.0,10.0,90,0.07,,,0.19,,2013-03-06 01:21:00,
2013-03-05 20:32:00,38.0,35.0,29.76,North,9,0.0,5.0,90,0.11,,,0.23,,2013-03-06 01:32:00,
2013-03-05 20:42:00,38.0,35.0,29.76,North,9,0.0,5.0,90,0.11,,,0.23,,2013-03-06 01:42:00,
2013-03-05 20:52:00,37.0,34.0,29.76,NE,34,0.0,3.0,90,0.12,,,0.26,,2013-03-06 01:52:00,
2013-03-05 21:01:00,37.0,35.0,29.76,NNE,30,1.0,2.0,91,0.14,,,0.30,,2013-03-06 02:01:00,
2013-03-05 21:11:00,37.0,35.0,29.76,NNE,30,1.0,2.0,91,0.14,,,0.30,,2013-03-06 02:11:00,
2013-03-05 21:22:00,37.0,34.0,29.76,NNW,348,2.0,4.0,90,0.15,,,0.34,,2013-03-06 02:22:00,
2013-03-05 21:32:00,36.0,33.0,29.75,NNW,346,1.0,2.0,90,0.16,,,0.38,,2013-03-06 02:32:00,
2013-03-05 21:42:00,36.0,33.0,29.75,NNW,346,1.0,2.0,90,0.16,,,0.38,,2013-03-06 02:42:00,
2013-03-05 21:52:00,36.0,34.0,29.75,SE,133,2.0,4.0,91,0.16,,,0.42,,2013-03-06 02:52:00,
2013-03-05 22:02:00,35.0,33.0,29.73,ESE,119,3.0,7.0,91,0.16,,,0.46,,2013-03-06 03:02:00,
2013-03-05 22:11:00,35.0,33.0,29.73,ESE,119,3.0,7.0,91,0.16,,,0.46,,2013-03-06 03:11:00,
2013-03-05 22:22:00,34.0,32.0,29.72,East,97,0.0,4.0,92,0.16,,,0.50,,2013-03-06 03:22:00,
2013-03-05 22:32:00,34.0,32.0,29.71,East,92,1.0,5.0,92,0.16,,,0.54,,2013-03-06 03:32:00,
2013-03-05 22:42:00,34.0,32.0,29.71,East,92,1.0,5.0,92,0.16,,,0.54,,2013-03-06 03:42:00,
2013-03-05 22:53:00,34.0,32.0,29.69,ENE,62,1.0,5.0,93,0.15,,,0.57,,2013-03-06 03:53:00,
2013-03-05 23:02:00,34.0,32.0,29.68,ENE,58,0.0,2.0,92,0.14,,,0.60,,2013-03-06 04:02:00,
2013-03-05 23:11:00,34.0,32.0,29.68,ENE,58,0.0,2.0,92,0.14,,,0.60,,2013-03-06 04:11:00,
2013-03-05 23:22:00,34.0,32.0,29.67,East,82,0.0,4.0,93,0.12,,,0.62,,2013-03-06 04:22:00,
2013-03-05 23:32:00,34.0,32.0,29.67,East,93,1.0,6.0,93,0.10,,,0.64,,2013-03-06 04:32:00,
2013-03-05 23:42:00,34.0,32.0,29.67,East,93,1.0,6.0,93,0.10,,,0.64,,2013-03-06 04:42:00,
2013-03-05 23:52:00,34.0,32.0,29.66,ESE,111,4.0,7.0,93,0.08,,,0.65,,2013-03-06 04:52:00,